sensor_id;sensor_type;location;lat;lon;timestamp;temperature;humidity
3850;DHT22;1940;51.052;13.678;2023-05-10T00:00:57;13.50;64.20
3850;DHT22;1940;51.052;13.678;2023-05-10T00:03:22;13.50;64.20
3850;DHT22;1940;51.052;13.678;2023-05-10T00:05:48;13.50;64.20
3850;DHT22;1940;51.052;13.678;2023-05-10T00:08:13;13.40;64.30
3850;DHT22;1940;51.052;13.678;2023-05-10T00:10:39;13.40;64.30
3850;DHT22;1940;51.052;13.678;2023-05-10T00:13:05;13.40;64.30
3850;DHT22;1940;51.052;13.678;2023-05-10T00:15:30;13.30;64.50
3850;DHT22;1940;51.052;13.678;2023-05-10T00:17:56;13.30;64.60
3850;DHT22;1940;51.052;13.678;2023-05-10T00:20:22;13.30;64.60
3850;DHT22;1940;51.052;13.678;2023-05-10T00:22:47;13.30;64.60
3850;DHT22;1940;51.052;13.678;2023-05-10T00:25:13;13.30;64.70
3850;DHT22;1940;51.052;13.678;2023-05-10T00:27:38;13.20;64.80
3850;DHT22;1940;51.052;13.678;2023-05-10T00:30:04;13.20;65.00
3850;DHT22;1940;51.052;13.678;2023-05-10T00:32:31;13.20;65.10
3850;DHT22;1940;51.052;13.678;2023-05-10T00:34:57;13.10;65.20
3850;DHT22;1940;51.052;13.678;2023-05-10T00:37:22;13.10;65.20
3850;DHT22;1940;51.052;13.678;2023-05-10T00:39:47;13.10;65.20
3850;DHT22;1940;51.052;13.678;2023-05-10T00:42:13;13.10;65.00
3850;DHT22;1940;51.052;13.678;2023-05-10T00:44:38;13.10;65.30
3850;DHT22;1940;51.052;13.678;2023-05-10T00:47:04;13.00;65.50
3850;DHT22;1940;51.052;13.678;2023-05-10T00:49:30;13.00;65.60
3850;DHT22;1940;51.052;13.678;2023-05-10T00:51:56;12.90;65.80
3850;DHT22;1940;51.052;13.678;2023-05-10T00:54:22;12.90;65.80
3850;DHT22;1940;51.052;13.678;2023-05-10T00:56:48;13.00;65.70
3850;DHT22;1940;51.052;13.678;2023-05-10T00:59:18;12.90;65.70
3850;DHT22;1940;51.052;13.678;2023-05-10T01:01:44;12.80;65.80
3850;DHT22;1940;51.052;13.678;2023-05-10T01:04:12;12.80;65.80
3850;DHT22;1940;51.052;13.678;2023-05-10T01:06:39;12.80;65.90
3850;DHT22;1940;51.052;13.678;2023-05-10T01:09:04;12.70;66.10
3850;DHT22;1940;51.052;13.678;2023-05-10T01:11:32;12.70;66.10
3850;DHT22;1940;51.052;13.678;2023-05-10T01:13:58;12.70;66.00
3850;DHT22;1940;51.052;13.678;2023-05-10T01:16:24;12.70;66.00
3850;DHT22;1940;51.052;13.678;2023-05-10T01:18:52;12.70;66.10
3850;DHT22;1940;51.052;13.678;2023-05-10T01:21:43;12.60;66.20
3850;DHT22;1940;51.052;13.678;2023-05-10T01:27:20;12.60;66.30
3850;DHT22;1940;51.052;13.678;2023-05-10T01:30:08;12.50;66.40
3850;DHT22;1940;51.052;13.678;2023-05-10T01:33:43;12.50;66.40
3850;DHT22;1940;51.052;13.678;2023-05-10T01:35:51;12.50;66.40
3850;DHT22;1940;51.052;13.678;2023-05-10T01:38:22;12.40;66.60
3850;DHT22;1940;51.052;13.678;2023-05-10T01:41:17;12.40;66.70
3850;DHT22;1940;51.052;13.678;2023-05-10T01:46:36;12.30;66.70
3850;DHT22;1940;51.052;13.678;2023-05-10T01:49:06;12.40;66.60
3850;DHT22;1940;51.052;13.678;2023-05-10T01:51:44;12.30;66.70
3850;DHT22;1940;51.052;13.678;2023-05-10T01:54:12;12.30;66.60
3850;DHT22;1940;51.052;13.678;2023-05-10T01:56:39;12.30;66.80
3850;DHT22;1940;51.052;13.678;2023-05-10T01:59:13;12.20;66.80
3850;DHT22;1940;51.052;13.678;2023-05-10T02:01:40;12.30;66.80
3850;DHT22;1940;51.052;13.678;2023-05-10T02:04:08;12.20;66.90
3850;DHT22;1940;51.052;13.678;2023-05-10T02:06:35;12.30;66.90
3850;DHT22;1940;51.052;13.678;2023-05-10T02:09:02;12.30;66.90
3850;DHT22;1940;51.052;13.678;2023-05-10T02:11:29;12.20;67.00
3850;DHT22;1940;51.052;13.678;2023-05-10T02:13:56;12.20;67.10
3850;DHT22;1940;51.052;13.678;2023-05-10T02:16:25;12.20;67.20
3850;DHT22;1940;51.052;13.678;2023-05-10T02:18:52;12.10;67.30
3850;DHT22;1940;51.052;13.678;2023-05-10T02:21:20;12.10;67.40
3850;DHT22;1940;51.052;13.678;2023-05-10T02:23:48;12.10;67.30
3850;DHT22;1940;51.052;13.678;2023-05-10T02:26:16;12.10;67.50
3850;DHT22;1940;51.052;13.678;2023-05-10T02:28:42;12.10;67.60
3850;DHT22;1940;51.052;13.678;2023-05-10T02:31:08;12.00;67.70
3850;DHT22;1940;51.052;13.678;2023-05-10T02:33:36;12.00;68.00
3850;DHT22;1940;51.052;13.678;2023-05-10T02:36:03;12.00;67.90
3850;DHT22;1940;51.052;13.678;2023-05-10T02:38:31;11.90;68.10
3850;DHT22;1940;51.052;13.678;2023-05-10T02:40:58;11.90;68.40
3850;DHT22;1940;51.052;13.678;2023-05-10T02:43:24;11.90;68.30
3850;DHT22;1940;51.052;13.678;2023-05-10T02:45:50;11.90;68.50
3850;DHT22;1940;51.052;13.678;2023-05-10T02:48:16;11.90;68.50
3850;DHT22;1940;51.052;13.678;2023-05-10T02:50:44;11.80;68.70
3850;DHT22;1940;51.052;13.678;2023-05-10T02:53:15;11.80;68.80
3850;DHT22;1940;51.052;13.678;2023-05-10T02:55:43;11.80;68.90
3850;DHT22;1940;51.052;13.678;2023-05-10T02:58:10;11.70;69.00
3850;DHT22;1940;51.052;13.678;2023-05-10T03:00:36;11.70;69.10
3850;DHT22;1940;51.052;13.678;2023-05-10T03:03:02;11.60;69.40
3850;DHT22;1940;51.052;13.678;2023-05-10T03:05:27;11.60;69.40
3850;DHT22;1940;51.052;13.678;2023-05-10T03:07:53;11.60;69.50
3850;DHT22;1940;51.052;13.678;2023-05-10T03:10:23;11.50;69.90
3850;DHT22;1940;51.052;13.678;2023-05-10T03:15:37;11.50;70.00
3850;DHT22;1940;51.052;13.678;2023-05-10T03:18:16;11.40;70.20
3850;DHT22;1940;51.052;13.678;2023-05-10T03:20:48;11.40;70.30
3850;DHT22;1940;51.052;13.678;2023-05-10T03:23:35;11.40;70.60
3850;DHT22;1940;51.052;13.678;2023-05-10T03:26:05;11.30;70.70
3850;DHT22;1940;51.052;13.678;2023-05-10T03:28:34;11.30;70.80
3850;DHT22;1940;51.052;13.678;2023-05-10T03:31:00;11.30;70.90
3850;DHT22;1940;51.052;13.678;2023-05-10T03:33:25;11.30;70.90
3850;DHT22;1940;51.052;13.678;2023-05-10T03:35:51;11.30;71.00
3850;DHT22;1940;51.052;13.678;2023-05-10T03:38:16;11.30;71.10
3850;DHT22;1940;51.052;13.678;2023-05-10T03:40:42;11.30;70.90
3850;DHT22;1940;51.052;13.678;2023-05-10T03:43:07;11.30;71.00
3850;DHT22;1940;51.052;13.678;2023-05-10T03:45:33;11.50;70.90
3850;DHT22;1940;51.052;13.678;2023-05-10T03:47:58;11.70;70.10
3850;DHT22;1940;51.052;13.678;2023-05-10T03:50:24;12.10;69.60
3850;DHT22;1940;51.052;13.678;2023-05-10T03:52:50;12.40;68.60
3850;DHT22;1940;51.052;13.678;2023-05-10T03:55:15;12.80;67.60
3850;DHT22;1940;51.052;13.678;2023-05-10T03:57:41;13.10;67.00
3850;DHT22;1940;51.052;13.678;2023-05-10T04:00:07;13.40;65.90
3850;DHT22;1940;51.052;13.678;2023-05-10T04:02:33;13.80;65.00
3850;DHT22;1940;51.052;13.678;2023-05-10T04:04:59;13.90;64.70
3850;DHT22;1940;51.052;13.678;2023-05-10T04:07:24;14.30;63.80
3850;DHT22;1940;51.052;13.678;2023-05-10T04:09:50;14.50;63.20
3850;DHT22;1940;51.052;13.678;2023-05-10T04:12:15;14.80;62.80
3850;DHT22;1940;51.052;13.678;2023-05-10T04:14:41;14.90;62.30
3850;DHT22;1940;51.052;13.678;2023-05-10T04:17:06;15.10;61.50
3850;DHT22;1940;51.052;13.678;2023-05-10T04:19:32;15.30;61.30
3850;DHT22;1940;51.052;13.678;2023-05-10T04:21:58;15.60;60.80
3850;DHT22;1940;51.052;13.678;2023-05-10T04:24:24;15.80;60.20
3850;DHT22;1940;51.052;13.678;2023-05-10T04:26:49;16.00;59.90
3850;DHT22;1940;51.052;13.678;2023-05-10T04:29:15;16.10;59.70
3850;DHT22;1940;51.052;13.678;2023-05-10T04:31:40;16.20;59.50
3850;DHT22;1940;51.052;13.678;2023-05-10T04:34:06;16.60;58.90
3850;DHT22;1940;51.052;13.678;2023-05-10T04:36:31;16.90;58.10
3850;DHT22;1940;51.052;13.678;2023-05-10T04:38:59;17.50;57.30
3850;DHT22;1940;51.052;13.678;2023-05-10T04:41:24;17.50;56.60
3850;DHT22;1940;51.052;13.678;2023-05-10T04:43:50;17.30;56.80
3850;DHT22;1940;51.052;13.678;2023-05-10T04:46:16;17.00;57.30
3850;DHT22;1940;51.052;13.678;2023-05-10T04:48:41;17.10;57.00
3850;DHT22;1940;51.052;13.678;2023-05-10T04:51:07;17.10;57.30
3850;DHT22;1940;51.052;13.678;2023-05-10T04:53:33;17.10;57.20
3850;DHT22;1940;51.052;13.678;2023-05-10T04:55:58;17.40;56.80
3850;DHT22;1940;51.052;13.678;2023-05-10T04:58:24;17.60;56.50
3850;DHT22;1940;51.052;13.678;2023-05-10T05:00:49;17.80;56.00
3850;DHT22;1940;51.052;13.678;2023-05-10T05:03:15;18.10;55.40
3850;DHT22;1940;51.052;13.678;2023-05-10T05:05:40;18.30;55.20
3850;DHT22;1940;51.052;13.678;2023-05-10T05:08:06;18.80;54.40
3850;DHT22;1940;51.052;13.678;2023-05-10T05:10:31;18.90;53.90
3850;DHT22;1940;51.052;13.678;2023-05-10T05:12:57;18.60;54.20
3850;DHT22;1940;51.052;13.678;2023-05-10T05:15:22;18.50;54.80
3850;DHT22;1940;51.052;13.678;2023-05-10T05:17:48;18.30;54.70
3850;DHT22;1940;51.052;13.678;2023-05-10T05:20:13;18.10;55.30
3850;DHT22;1940;51.052;13.678;2023-05-10T05:22:39;17.90;55.70
3850;DHT22;1940;51.052;13.678;2023-05-10T05:25:05;18.10;55.50
3850;DHT22;1940;51.052;13.678;2023-05-10T05:27:31;18.10;55.70
3850;DHT22;1940;51.052;13.678;2023-05-10T05:29:57;18.10;55.50
3850;DHT22;1940;51.052;13.678;2023-05-10T05:32:23;18.30;55.40
3850;DHT22;1940;51.052;13.678;2023-05-10T05:34:49;18.40;55.10
3850;DHT22;1940;51.052;13.678;2023-05-10T05:37:15;18.80;54.80
3850;DHT22;1940;51.052;13.678;2023-05-10T05:39:41;19.00;53.90
3850;DHT22;1940;51.052;13.678;2023-05-10T05:42:08;19.30;53.80
3850;DHT22;1940;51.052;13.678;2023-05-10T05:44:33;19.80;53.30
3850;DHT22;1940;51.052;13.678;2023-05-10T05:46:59;19.90;52.30
3850;DHT22;1940;51.052;13.678;2023-05-10T05:49:24;20.10;52.10
3850;DHT22;1940;51.052;13.678;2023-05-10T05:51:50;20.00;52.40
3850;DHT22;1940;51.052;13.678;2023-05-10T05:54:16;20.10;52.20
3850;DHT22;1940;51.052;13.678;2023-05-10T05:56:41;20.00;52.50
3850;DHT22;1940;51.052;13.678;2023-05-10T05:59:07;20.30;52.50
3850;DHT22;1940;51.052;13.678;2023-05-10T06:01:33;20.50;51.70
3850;DHT22;1940;51.052;13.678;2023-05-10T06:03:58;20.40;51.80
3850;DHT22;1940;51.052;13.678;2023-05-10T06:06:24;20.40;51.90
3850;DHT22;1940;51.052;13.678;2023-05-10T06:08:49;20.20;52.00
3850;DHT22;1940;51.052;13.678;2023-05-10T06:11:14;20.20;52.20
3850;DHT22;1940;51.052;13.678;2023-05-10T06:13:40;20.30;52.30
3850;DHT22;1940;51.052;13.678;2023-05-10T06:16:07;20.40;52.20
3850;DHT22;1940;51.052;13.678;2023-05-10T06:18:32;20.30;52.40
3850;DHT22;1940;51.052;13.678;2023-05-10T06:20:58;20.70;52.00
3850;DHT22;1940;51.052;13.678;2023-05-10T06:23:23;21.00;51.30
3850;DHT22;1940;51.052;13.678;2023-05-10T06:25:51;20.70;51.50
3850;DHT22;1940;51.052;13.678;2023-05-10T06:28:16;20.90;51.70
3850;DHT22;1940;51.052;13.678;2023-05-10T06:30:42;21.20;51.50
3850;DHT22;1940;51.052;13.678;2023-05-10T06:33:07;21.10;51.20
3850;DHT22;1940;51.052;13.678;2023-05-10T06:35:33;20.80;51.50
3850;DHT22;1940;51.052;13.678;2023-05-10T06:37:58;20.60;52.00
3850;DHT22;1940;51.052;13.678;2023-05-10T06:40:24;21.00;52.20
3850;DHT22;1940;51.052;13.678;2023-05-10T06:42:49;21.30;51.00
3850;DHT22;1940;51.052;13.678;2023-05-10T06:45:15;21.60;50.10
3850;DHT22;1940;51.052;13.678;2023-05-10T06:47:41;20.80;50.70
3850;DHT22;1940;51.052;13.678;2023-05-10T06:50:10;20.40;51.60
3850;DHT22;1940;51.052;13.678;2023-05-10T06:52:39;20.60;52.00
3850;DHT22;1940;51.052;13.678;2023-05-10T06:55:05;20.80;51.30
3850;DHT22;1940;51.052;13.678;2023-05-10T06:57:31;20.70;51.50
3850;DHT22;1940;51.052;13.678;2023-05-10T07:00:00;20.40;52.40
3850;DHT22;1940;51.052;13.678;2023-05-10T07:02:26;20.90;51.90
3850;DHT22;1940;51.052;13.678;2023-05-10T07:04:51;21.40;51.10
3850;DHT22;1940;51.052;13.678;2023-05-10T07:07:18;21.50;50.40
3850;DHT22;1940;51.052;13.678;2023-05-10T07:09:43;21.40;50.60
3850;DHT22;1940;51.052;13.678;2023-05-10T07:12:08;21.40;50.80
3850;DHT22;1940;51.052;13.678;2023-05-10T07:14:34;21.40;50.70
3850;DHT22;1940;51.052;13.678;2023-05-10T07:16:59;21.60;50.20
3850;DHT22;1940;51.052;13.678;2023-05-10T07:19:25;21.80;50.10
3850;DHT22;1940;51.052;13.678;2023-05-10T07:21:51;21.50;50.30
3850;DHT22;1940;51.052;13.678;2023-05-10T07:24:16;21.30;50.60
3850;DHT22;1940;51.052;13.678;2023-05-10T07:26:42;21.10;51.00
3850;DHT22;1940;51.052;13.678;2023-05-10T07:29:07;21.30;51.20
3850;DHT22;1940;51.052;13.678;2023-05-10T07:31:33;21.40;50.80
3850;DHT22;1940;51.052;13.678;2023-05-10T07:33:58;21.40;51.00
3850;DHT22;1940;51.052;13.678;2023-05-10T07:36:24;21.60;50.90
3850;DHT22;1940;51.052;13.678;2023-05-10T07:38:49;22.00;49.80
3850;DHT22;1940;51.052;13.678;2023-05-10T07:41:15;22.20;50.20
3850;DHT22;1940;51.052;13.678;2023-05-10T07:43:40;22.70;49.30
3850;DHT22;1940;51.052;13.678;2023-05-10T07:46:06;23.00;48.60
3850;DHT22;1940;51.052;13.678;2023-05-10T07:48:31;23.60;48.20
3850;DHT22;1940;51.052;13.678;2023-05-10T07:50:57;23.80;47.80
3850;DHT22;1940;51.052;13.678;2023-05-10T07:53:22;23.50;48.20
3850;DHT22;1940;51.052;13.678;2023-05-10T07:55:53;23.70;48.10
3850;DHT22;1940;51.052;13.678;2023-05-10T07:58:19;23.90;47.40
3850;DHT22;1940;51.052;13.678;2023-05-10T08:00:45;24.10;47.00
3850;DHT22;1940;51.052;13.678;2023-05-10T08:03:10;23.90;46.80
3850;DHT22;1940;51.052;13.678;2023-05-10T08:05:36;24.20;47.10
3850;DHT22;1940;51.052;13.678;2023-05-10T08:08:01;24.20;47.60
3850;DHT22;1940;51.052;13.678;2023-05-10T08:10:27;23.70;47.60
3850;DHT22;1940;51.052;13.678;2023-05-10T08:12:52;23.60;48.20
3850;DHT22;1940;51.052;13.678;2023-05-10T08:15:18;23.80;47.90
3850;DHT22;1940;51.052;13.678;2023-05-10T08:17:43;24.00;47.70
3850;DHT22;1940;51.052;13.678;2023-05-10T08:20:09;24.40;47.20
3850;DHT22;1940;51.052;13.678;2023-05-10T08:22:34;24.60;46.70
3850;DHT22;1940;51.052;13.678;2023-05-10T08:25:00;24.60;47.00
3850;DHT22;1940;51.052;13.678;2023-05-10T08:27:25;24.80;47.10
3850;DHT22;1940;51.052;13.678;2023-05-10T08:29:51;25.20;46.30
3850;DHT22;1940;51.052;13.678;2023-05-10T08:32:17;25.80;45.10
3850;DHT22;1940;51.052;13.678;2023-05-10T08:34:43;26.30;44.70
3850;DHT22;1940;51.052;13.678;2023-05-10T08:37:08;26.70;44.00
3850;DHT22;1940;51.052;13.678;2023-05-10T08:39:34;26.90;44.00
3850;DHT22;1940;51.052;13.678;2023-05-10T08:42:02;27.20;44.00
3850;DHT22;1940;51.052;13.678;2023-05-10T08:44:31;27.40;43.00
3850;DHT22;1940;51.052;13.678;2023-05-10T08:46:57;27.20;43.80
3850;DHT22;1940;51.052;13.678;2023-05-10T08:49:25;27.60;43.20
3850;DHT22;1940;51.052;13.678;2023-05-10T08:51:54;27.50;43.00
3850;DHT22;1940;51.052;13.678;2023-05-10T08:54:21;27.10;43.30
3850;DHT22;1940;51.052;13.678;2023-05-10T08:56:47;26.90;43.50
3850;DHT22;1940;51.052;13.678;2023-05-10T08:59:12;27.30;43.80
3850;DHT22;1940;51.052;13.678;2023-05-10T09:01:40;27.80;42.90
3850;DHT22;1940;51.052;13.678;2023-05-10T09:04:06;27.90;43.20
3850;DHT22;1940;51.052;13.678;2023-05-10T09:06:33;28.40;42.90
3850;DHT22;1940;51.052;13.678;2023-05-10T09:08:59;28.70;42.10
3850;DHT22;1940;51.052;13.678;2023-05-10T09:11:25;29.00;41.60
3850;DHT22;1940;51.052;13.678;2023-05-10T09:14:10;29.00;41.60
3850;DHT22;1940;51.052;13.678;2023-05-10T09:17:11;28.40;42.10
3850;DHT22;1940;51.052;13.678;2023-05-10T09:19:55;27.90;42.70
3850;DHT22;1940;51.052;13.678;2023-05-10T09:22:22;27.80;43.10
3850;DHT22;1940;51.052;13.678;2023-05-10T09:25:11;28.20;42.90
3850;DHT22;1940;51.052;13.678;2023-05-10T09:27:39;27.80;43.10
3850;DHT22;1940;51.052;13.678;2023-05-10T09:30:05;27.70;43.30
3850;DHT22;1940;51.052;13.678;2023-05-10T09:32:39;27.90;43.40
3850;DHT22;1940;51.052;13.678;2023-05-10T09:35:16;27.90;43.30
3850;DHT22;1940;51.052;13.678;2023-05-10T09:37:44;27.70;43.40
3850;DHT22;1940;51.052;13.678;2023-05-10T09:40:15;27.90;43.50
3850;DHT22;1940;51.052;13.678;2023-05-10T09:42:42;28.50;43.40
3850;DHT22;1940;51.052;13.678;2023-05-10T09:45:08;28.60;42.40
3850;DHT22;1940;51.052;13.678;2023-05-10T09:47:35;28.40;42.90
3850;DHT22;1940;51.052;13.678;2023-05-10T09:50:04;28.20;43.30
3850;DHT22;1940;51.052;13.678;2023-05-10T09:55:25;28.30;43.30
3850;DHT22;1940;51.052;13.678;2023-05-10T09:57:59;28.00;43.50
3850;DHT22;1940;51.052;13.678;2023-05-10T10:00:26;28.10;43.50
3850;DHT22;1940;51.052;13.678;2023-05-10T10:02:56;28.10;43.20
3850;DHT22;1940;51.052;13.678;2023-05-10T10:05:38;27.80;43.70
3850;DHT22;1940;51.052;13.678;2023-05-10T10:08:05;27.90;43.90
3850;DHT22;1940;51.052;13.678;2023-05-10T10:10:32;27.90;43.60
3850;DHT22;1940;51.052;13.678;2023-05-10T10:13:02;27.80;43.80
3850;DHT22;1940;51.052;13.678;2023-05-10T10:15:32;27.50;44.10
3850;DHT22;1940;51.052;13.678;2023-05-10T10:17:58;27.20;44.40
3850;DHT22;1940;51.052;13.678;2023-05-10T10:20:27;26.60;45.30
3850;DHT22;1940;51.052;13.678;2023-05-10T10:22:53;26.70;45.60
3850;DHT22;1940;51.052;13.678;2023-05-10T10:25:20;26.70;45.40
3850;DHT22;1940;51.052;13.678;2023-05-10T10:35:36;26.40;45.80
3850;DHT22;1940;51.052;13.678;2023-05-10T10:38:02;26.40;46.00
3850;DHT22;1940;51.052;13.678;2023-05-10T10:40:32;26.50;45.40
3850;DHT22;1940;51.052;13.678;2023-05-10T10:42:58;26.40;45.80
3850;DHT22;1940;51.052;13.678;2023-05-10T10:45:43;26.20;45.90
3850;DHT22;1940;51.052;13.678;2023-05-10T10:48:21;26.30;46.00
3850;DHT22;1940;51.052;13.678;2023-05-10T10:50:47;26.10;46.10
3850;DHT22;1940;51.052;13.678;2023-05-10T10:53:12;25.80;46.60
3850;DHT22;1940;51.052;13.678;2023-05-10T10:55:47;25.70;46.70
3850;DHT22;1940;51.052;13.678;2023-05-10T10:58:29;25.20;47.80
3850;DHT22;1940;51.052;13.678;2023-05-10T11:01:10;24.80;48.40
3850;DHT22;1940;51.052;13.678;2023-05-10T11:03:36;25.00;48.10
3850;DHT22;1940;51.052;13.678;2023-05-10T11:06:02;25.00;48.50
3850;DHT22;1940;51.052;13.678;2023-05-10T11:08:31;25.20;48.30
3850;DHT22;1940;51.052;13.678;2023-05-10T11:13:40;24.50;48.60
3850;DHT22;1940;51.052;13.678;2023-05-10T11:16:21;24.50;49.10
3850;DHT22;1940;51.052;13.678;2023-05-10T11:19:03;24.60;48.60
3850;DHT22;1940;51.052;13.678;2023-05-10T11:21:32;24.30;49.00
3850;DHT22;1940;51.052;13.678;2023-05-10T11:24:00;24.40;49.40
3850;DHT22;1940;51.052;13.678;2023-05-10T11:26:32;24.10;49.40
3850;DHT22;1940;51.052;13.678;2023-05-10T11:28:59;23.80;50.00
3850;DHT22;1940;51.052;13.678;2023-05-10T11:31:26;23.50;50.50
3850;DHT22;1940;51.052;13.678;2023-05-10T11:33:56;22.90;51.30
3850;DHT22;1940;51.052;13.678;2023-05-10T11:36:27;22.60;51.70
3850;DHT22;1940;51.052;13.678;2023-05-10T11:38:54;22.40;52.40
3850;DHT22;1940;51.052;13.678;2023-05-10T11:41:20;22.50;52.40
3850;DHT22;1940;51.052;13.678;2023-05-10T11:43:53;22.50;52.30
3850;DHT22;1940;51.052;13.678;2023-05-10T11:46:20;22.50;52.20
3850;DHT22;1940;51.052;13.678;2023-05-10T11:48:48;22.30;52.70
3850;DHT22;1940;51.052;13.678;2023-05-10T11:51:15;22.20;52.70
3850;DHT22;1940;51.052;13.678;2023-05-10T11:53:40;21.90;53.30
3850;DHT22;1940;51.052;13.678;2023-05-10T11:56:07;21.90;53.80
3850;DHT22;1940;51.052;13.678;2023-05-10T11:58:34;22.10;53.80
3850;DHT22;1940;51.052;13.678;2023-05-10T12:01:00;22.20;53.40
3850;DHT22;1940;51.052;13.678;2023-05-10T12:03:27;22.40;53.20
3850;DHT22;1940;51.052;13.678;2023-05-10T12:05:54;22.50;53.20
3850;DHT22;1940;51.052;13.678;2023-05-10T12:08:25;22.60;52.60
3850;DHT22;1940;51.052;13.678;2023-05-10T12:10:51;22.60;52.20
3850;DHT22;1940;51.052;13.678;2023-05-10T12:13:17;22.60;52.50
3850;DHT22;1940;51.052;13.678;2023-05-10T12:15:44;22.50;52.50
3850;DHT22;1940;51.052;13.678;2023-05-10T12:18:10;22.30;53.30
3850;DHT22;1940;51.052;13.678;2023-05-10T12:20:37;22.00;53.30
3850;DHT22;1940;51.052;13.678;2023-05-10T12:23:03;22.00;53.70
3850;DHT22;1940;51.052;13.678;2023-05-10T12:25:34;22.10;54.00
3850;DHT22;1940;51.052;13.678;2023-05-10T12:28:02;22.30;53.80
3850;DHT22;1940;51.052;13.678;2023-05-10T12:30:30;22.50;53.00
3850;DHT22;1940;51.052;13.678;2023-05-10T12:33:13;22.70;52.40
3850;DHT22;1940;51.052;13.678;2023-05-10T12:35:50;22.50;52.10
3850;DHT22;1940;51.052;13.678;2023-05-10T12:38:29;22.50;52.20
3850;DHT22;1940;51.052;13.678;2023-05-10T12:40:57;22.50;51.80
3850;DHT22;1940;51.052;13.678;2023-05-10T12:43:23;22.40;52.20
3850;DHT22;1940;51.052;13.678;2023-05-10T12:45:48;22.10;52.00
3850;DHT22;1940;51.052;13.678;2023-05-10T12:48:14;21.90;52.40
3850;DHT22;1940;51.052;13.678;2023-05-10T12:50:40;21.90;52.40
3850;DHT22;1940;51.052;13.678;2023-05-10T12:53:06;21.90;52.30
3850;DHT22;1940;51.052;13.678;2023-05-10T12:55:31;22.00;52.60
3850;DHT22;1940;51.052;13.678;2023-05-10T12:57:57;22.10;52.60
3850;DHT22;1940;51.052;13.678;2023-05-10T13:00:22;22.30;52.30
3850;DHT22;1940;51.052;13.678;2023-05-10T13:02:47;22.20;52.00
3850;DHT22;1940;51.052;13.678;2023-05-10T13:05:13;22.20;52.10
3850;DHT22;1940;51.052;13.678;2023-05-10T13:07:39;22.20;51.40
3850;DHT22;1940;51.052;13.678;2023-05-10T13:10:05;22.10;51.20
3850;DHT22;1940;51.052;13.678;2023-05-10T13:12:31;21.90;50.90
3850;DHT22;1940;51.052;13.678;2023-05-10T13:14:57;21.90;52.00
3850;DHT22;1940;51.052;13.678;2023-05-10T13:17:22;22.00;52.20
3850;DHT22;1940;51.052;13.678;2023-05-10T13:19:48;22.30;51.70
3850;DHT22;1940;51.052;13.678;2023-05-10T13:22:13;22.30;51.20
3850;DHT22;1940;51.052;13.678;2023-05-10T13:24:39;22.30;51.20
3850;DHT22;1940;51.052;13.678;2023-05-10T13:27:04;22.20;51.90
3850;DHT22;1940;51.052;13.678;2023-05-10T13:29:30;22.30;52.40
3850;DHT22;1940;51.052;13.678;2023-05-10T13:31:55;22.40;51.80
3850;DHT22;1940;51.052;13.678;2023-05-10T13:34:21;22.30;50.60
3850;DHT22;1940;51.052;13.678;2023-05-10T13:36:47;22.20;50.50
3850;DHT22;1940;51.052;13.678;2023-05-10T13:39:13;22.30;57.00
3850;DHT22;1940;51.052;13.678;2023-05-10T13:41:38;22.40;50.90
3850;DHT22;1940;51.052;13.678;2023-05-10T13:44:04;22.50;56.90
3850;DHT22;1940;51.052;13.678;2023-05-10T13:46:30;22.60;58.60
3850;DHT22;1940;51.052;13.678;2023-05-10T13:48:56;22.50;58.60
3850;DHT22;1940;51.052;13.678;2023-05-10T13:51:22;22.70;57.90
3850;DHT22;1940;51.052;13.678;2023-05-10T13:53:48;22.60;56.50
3850;DHT22;1940;51.052;13.678;2023-05-10T13:56:14;22.80;53.80
3850;DHT22;1940;51.052;13.678;2023-05-10T13:58:39;22.70;58.10
3850;DHT22;1940;51.052;13.678;2023-05-10T14:01:05;22.80;59.80
3850;DHT22;1940;51.052;13.678;2023-05-10T14:03:31;22.80;59.90
3850;DHT22;1940;51.052;13.678;2023-05-10T14:05:56;22.80;59.80
3850;DHT22;1940;51.052;13.678;2023-05-10T14:08:21;22.90;59.30
3850;DHT22;1940;51.052;13.678;2023-05-10T14:10:48;22.70;59.30
3850;DHT22;1940;51.052;13.678;2023-05-10T14:13:14;22.60;59.60
3850;DHT22;1940;51.052;13.678;2023-05-10T14:15:40;22.60;59.10
3850;DHT22;1940;51.052;13.678;2023-05-10T14:18:06;22.70;58.90
3850;DHT22;1940;51.052;13.678;2023-05-10T14:20:31;22.70;59.30
3850;DHT22;1940;51.052;13.678;2023-05-10T14:22:59;23.00;58.60
3850;DHT22;1940;51.052;13.678;2023-05-10T14:25:25;22.80;58.80
3850;DHT22;1940;51.052;13.678;2023-05-10T14:27:51;22.70;58.30
3850;DHT22;1940;51.052;13.678;2023-05-10T14:30:16;22.70;58.90
3850;DHT22;1940;51.052;13.678;2023-05-10T14:32:42;22.70;59.40
3850;DHT22;1940;51.052;13.678;2023-05-10T14:35:07;22.70;59.20
3850;DHT22;1940;51.052;13.678;2023-05-10T14:37:33;22.40;59.80
3850;DHT22;1940;51.052;13.678;2023-05-10T14:39:58;22.10;61.40
3850;DHT22;1940;51.052;13.678;2023-05-10T14:42:24;22.20;61.50
3850;DHT22;1940;51.052;13.678;2023-05-10T14:44:49;22.20;61.00
3850;DHT22;1940;51.052;13.678;2023-05-10T14:47:15;22.30;61.80
3850;DHT22;1940;51.052;13.678;2023-05-10T14:49:40;22.40;62.20
3850;DHT22;1940;51.052;13.678;2023-05-10T14:52:06;22.30;61.90
3850;DHT22;1940;51.052;13.678;2023-05-10T14:54:32;22.30;62.10
3850;DHT22;1940;51.052;13.678;2023-05-10T14:56:58;22.00;62.80
3850;DHT22;1940;51.052;13.678;2023-05-10T14:59:25;22.00;63.40
3850;DHT22;1940;51.052;13.678;2023-05-10T15:01:50;21.90;63.70
3850;DHT22;1940;51.052;13.678;2023-05-10T15:04:16;21.80;63.60
3850;DHT22;1940;51.052;13.678;2023-05-10T15:06:43;21.80;63.60
3850;DHT22;1940;51.052;13.678;2023-05-10T15:09:08;21.70;64.00
3850;DHT22;1940;51.052;13.678;2023-05-10T15:11:34;21.60;64.40
3850;DHT22;1940;51.052;13.678;2023-05-10T15:14:00;21.50;64.20
3850;DHT22;1940;51.052;13.678;2023-05-10T15:16:25;21.50;64.70
3850;DHT22;1940;51.052;13.678;2023-05-10T15:18:51;21.60;65.40
3850;DHT22;1940;51.052;13.678;2023-05-10T15:21:17;21.50;64.50
3850;DHT22;1940;51.052;13.678;2023-05-10T15:23:42;21.20;64.70
3850;DHT22;1940;51.052;13.678;2023-05-10T15:26:08;21.10;65.30
3850;DHT22;1940;51.052;13.678;2023-05-10T15:28:33;21.20;65.70
3850;DHT22;1940;51.052;13.678;2023-05-10T15:30:59;21.20;65.30
3850;DHT22;1940;51.052;13.678;2023-05-10T15:33:25;21.00;65.50
3850;DHT22;1940;51.052;13.678;2023-05-10T15:35:52;21.00;65.50
3850;DHT22;1940;51.052;13.678;2023-05-10T15:38:19;21.00;65.20
3850;DHT22;1940;51.052;13.678;2023-05-10T15:40:44;21.00;65.30
3850;DHT22;1940;51.052;13.678;2023-05-10T15:43:10;21.10;65.50
3850;DHT22;1940;51.052;13.678;2023-05-10T15:45:35;21.00;65.20
3850;DHT22;1940;51.052;13.678;2023-05-10T15:48:01;20.80;65.50
3850;DHT22;1940;51.052;13.678;2023-05-10T15:50:26;20.70;65.90
3850;DHT22;1940;51.052;13.678;2023-05-10T15:52:52;20.60;66.10
3850;DHT22;1940;51.052;13.678;2023-05-10T15:55:18;20.50;66.30
3850;DHT22;1940;51.052;13.678;2023-05-10T15:57:44;20.30;67.00
3850;DHT22;1940;51.052;13.678;2023-05-10T16:00:11;20.10;67.20
3850;DHT22;1940;51.052;13.678;2023-05-10T16:02:38;20.20;67.40
3850;DHT22;1940;51.052;13.678;2023-05-10T16:05:03;20.10;67.20
3850;DHT22;1940;51.052;13.678;2023-05-10T16:07:29;20.00;67.30